Time;durP1;ratioP1;P1;durP2;ratioP2;P2;SDS_P1;SDS_P2;PMS_P1;PMS_P2;Temp;Humidity;BMP_temperature;BMP_pressure;BME280_temperature;BME280_humidity;BME280_pressure;Samples;Min_cycle;Max_cycle;Signal;HPM_P1;HPM_P2
2022/04/20 00:01:43;;;;;;;;;;;;;;;1.33;66.75;94910.25;5135509;27;1906;-49
2022/04/20 00:04:11;;;;;;;;;;;;;;;1.44;67.53;94909.47;5135408;27;1027;-49
2022/04/20 00:06:37;;;;;;;;;;;;;;;1.52;66.91;94912.41;5135531;27;1023;-49
2022/04/20 00:09:03;;;;;;;;;;;;;;;1.50;66.93;94917.78;5135521;27;1019;-49
2022/04/20 00:11:29;;;;;;;;;;;;;;;1.60;66.61;94915.31;5135066;27;1436;-49
2022/04/20 00:13:56;;;;;;;;;;;;;;;1.45;66.64;94916.44;5135113;27;1063;-49
2022/04/20 00:16:22;;;;;;;;;;;;;;;1.22;66.97;94913.66;5134999;27;1095;-49
2022/04/20 00:18:48;;;;;;;;;;;;;;;1.07;68.01;94906.88;5135314;27;949;-49
2022/04/20 00:21:14;;;;;;;;;;;;;;;1.17;67.59;94913.97;5134996;27;1906;-49
2022/04/20 00:23:40;;;;;;;;;;;;;;;1.14;67.48;94918.66;5134942;27;1040;-49
2022/04/20 00:26:06;;;;;;;;;;;;;;;0.98;67.58;94919.72;5134739;27;1080;-49
2022/04/20 00:28:32;;;;;;;;;;;;;;;1.08;67.89;94927.81;5134939;27;1091;-49
2022/04/20 00:30:58;;;;;;;;;;;;;;;1.20;67.11;94917.38;5135153;27;1027;-49
2022/04/20 00:33:24;;;;;;;;;;;;;;;1.15;66.89;94921.16;5134798;27;1020;-49
2022/04/20 00:35:50;;;;;;;;;;;;;;;0.93;67.45;94921.00;5134829;27;1059;-49
2022/04/20 00:38:17;;;;;;;;;;;;;;;0.88;67.83;94920.50;5134786;27;1217;-49
2022/04/20 00:40:50;;;;;;;;;;;;;;;1.17;67.42;94915.78;5134532;27;1905;-49
2022/04/20 00:43:16;;;;;;;;;;;;;;;1.32;68.14;94909.41;5134966;27;961;-49
2022/04/20 00:45:43;;;;;;;;;;;;;;;1.49;67.46;94908.19;5134813;27;992;-49
2022/04/20 00:48:12;;;;;;;;;;;;;;;1.53;67.01;94908.81;5134589;27;1929;-49
2022/04/20 00:50:38;;;;;;;;;;;;;;;1.46;66.97;94907.56;5134312;27;1056;-49
2022/04/20 00:53:05;;;;;;;;;;;;;;;1.41;67.08;94910.53;5133995;27;1038;-49
2022/04/20 00:55:31;;;;;;;;;;;;;;;1.23;67.48;94904.78;5134681;27;1066;-49
2022/04/20 00:57:57;;;;;;;;;;;;;;;1.19;67.82;94903.34;5134706;27;1043;-49
2022/04/20 01:00:25;;;;;;;;;;;;;;;1.20;67.39;94902.41;5134416;27;1087;-49
2022/04/20 01:02:51;;;;;;;;;;;;;;;1.14;67.41;94902.84;5134642;27;1977;-49
2022/04/20 01:05:18;;;;;;;;;;;;;;;1.25;67.23;94905.56;5134377;28;1183;-49
2022/04/20 01:07:44;;;;;;;;;;;;;;;1.35;67.70;94901.28;5134603;28;1063;-49
2022/04/20 01:10:10;;;;;;;;;;;;;;;1.23;67.42;94902.16;5134200;28;1019;-49
2022/04/20 01:12:37;;;;;;;;;;;;;;;1.22;68.42;94905.75;5134528;28;1003;-49
2022/04/20 01:15:03;;;;;;;;;;;;;;;1.25;67.92;94917.84;5134594;28;988;-49
2022/04/20 01:17:29;;;;;;;;;;;;;;;1.24;67.73;94900.38;5134401;28;999;-49
2022/04/20 01:19:55;;;;;;;;;;;;;;;1.20;67.55;94904.19;5134525;28;1000;-49
2022/04/20 01:22:22;;;;;;;;;;;;;;;0.98;66.93;94898.66;5134144;28;1906;-49
2022/04/20 01:24:48;;;;;;;;;;;;;;;0.72;68.26;94903.16;5134659;28;988;-49
2022/04/20 01:27:14;;;;;;;;;;;;;;;0.69;69.03;94900.72;5134499;28;1018;-49
2022/04/20 01:29:40;;;;;;;;;;;;;;;0.89;68.87;94901.97;5133946;28;1106;-49
2022/04/20 01:32:06;;;;;;;;;;;;;;;1.01;68.37;94910.78;5134243;28;1026;-49
2022/04/20 01:34:33;;;;;;;;;;;;;;;0.95;68.69;94914.69;5134416;28;1047;-49
2022/04/20 01:36:59;;;;;;;;;;;;;;;0.87;67.85;94911.72;5134190;27;1019;-49
2022/04/20 01:39:25;;;;;;;;;;;;;;;0.71;68.54;94919.03;5133842;28;1023;-49
2022/04/20 01:41:51;;;;;;;;;;;;;;;0.56;68.39;94919.13;5133972;28;1984;-49
2022/04/20 01:44:17;;;;;;;;;;;;;;;0.41;68.96;94927.25;5134041;28;1861;-49
2022/04/20 01:46:43;;;;;;;;;;;;;;;0.44;69.29;94924.41;5134129;28;1023;-49
2022/04/20 01:49:09;;;;;;;;;;;;;;;0.54;69.01;94928.94;5133971;28;1020;-49
2022/04/20 01:51:47;;;;;;;;;;;;;;;0.61;68.58;94931.13;5134017;28;996;-49
2022/04/20 01:54:13;;;;;;;;;;;;;;;0.70;69.12;94934.00;5134215;28;1028;-49
2022/04/20 01:56:39;;;;;;;;;;;;;;;0.66;68.03;94934.28;5133803;28;1033;-49
2022/04/20 01:59:05;;;;;;;;;;;;;;;0.43;68.77;94933.25;5134035;28;960;-49
2022/04/20 02:04:16;;;;;;;;;;;;;;;0.35;69.21;94939.03;5137018;27;1043;-49
2022/04/20 02:06:42;;;;;;;;;;;;;;;0.38;68.86;94929.16;5137912;27;925;-49
2022/04/20 02:09:08;;;;;;;;;;;;;;;0.44;69.29;94934.91;5137540;27;1087;-49
2022/04/20 02:11:35;;;;;;;;;;;;;;;0.35;68.61;94925.88;5137574;27;963;-49
2022/04/20 02:14:01;;;;;;;;;;;;;;;0.16;69.39;94929.75;5137446;27;1031;-49
2022/04/20 02:16:27;;;;;;;;;;;;;;;0.24;69.65;94931.03;5137679;27;1028;-49
2022/04/20 02:18:53;;;;;;;;;;;;;;;0.17;69.93;94934.09;5137293;27;1024;-49
2022/04/20 02:21:19;;;;;;;;;;;;;;;0.21;70.02;94932.09;5137242;27;1902;-49
2022/04/20 02:23:45;;;;;;;;;;;;;;;0.37;69.90;94939.78;5137296;27;1004;-49
2022/04/20 02:26:11;;;;;;;;;;;;;;;0.47;68.80;94935.56;5137472;27;1091;-49
2022/04/20 02:28:37;;;;;;;;;;;;;;;0.40;68.84;94934.31;5137151;27;1237;-49
2022/04/20 02:31:03;;;;;;;;;;;;;;;0.25;69.12;94930.06;5137545;27;968;-49
2022/04/20 02:33:29;;;;;;;;;;;;;;;0.08;70.41;94933.88;5137356;27;1093;-49
2022/04/20 02:35:56;;;;;;;;;;;;;;;0.23;70.32;94934.59;5137111;27;948;-49
2022/04/20 02:38:23;;;;;;;;;;;;;;;0.41;69.84;94933.34;5137308;27;957;-49
2022/04/20 02:40:50;;;;;;;;;;;;;;;0.46;69.32;94925.16;5137105;27;1988;-49
2022/04/20 02:43:17;;;;;;;;;;;;;;;0.35;69.11;94931.16;5137216;27;1031;-49
2022/04/20 02:45:43;;;;;;;;;;;;;;;0.12;68.89;94928.28;5137160;27;979;-49
2022/04/20 02:48:09;;;;;;;;;;;;;;;-0.06;69.86;94932.13;5137038;27;1034;-49
2022/04/20 02:50:35;;;;;;;;;;;;;;;0.19;69.51;94936.63;5137044;27;968;-49
2022/04/20 02:53:01;;;;;;;;;;;;;;;0.13;69.75;94944.91;5136940;27;1062;-49
2022/04/20 02:55:28;;;;;;;;;;;;;;;0.31;70.17;94932.31;5136725;27;954;-49
2022/04/20 02:57:54;;;;;;;;;;;;;;;0.15;69.50;94930.72;5136778;27;1038;-49
2022/04/20 03:00:20;;;;;;;;;;;;;;;0.10;70.32;94917.03;5136865;27;1054;-49
2022/04/20 03:02:46;;;;;;;;;;;;;;;0.37;70.18;94924.00;5136671;27;1906;-49
2022/04/20 03:05:12;;;;;;;;;;;;;;;0.50;69.24;94919.56;5136718;27;1069;-49
2022/04/20 03:07:38;;;;;;;;;;;;;;;0.43;69.12;94920.09;5136441;27;1019;-49
2022/04/20 03:10:05;;;;;;;;;;;;;;;0.24;69.84;94917.88;5136609;27;1028;-49
2022/04/20 03:12:31;;;;;;;;;;;;;;;0.24;70.12;94921.34;5136619;27;1034;-49
2022/04/20 03:14:57;;;;;;;;;;;;;;;0.30;69.91;94920.09;5135233;27;1016;-49
2022/04/20 03:17:24;;;;;;;;;;;;;;;0.26;69.86;94916.81;5136537;27;1039;-49
2022/04/20 03:19:51;;;;;;;;;;;;;;;0.16;69.45;94919.25;5136482;27;1144;-48
2022/04/20 03:22:17;;;;;;;;;;;;;;;0.18;70.33;94911.25;5136253;27;1905;-49
2022/04/20 03:24:43;;;;;;;;;;;;;;;0.24;70.56;94923.16;5135969;27;1099;-48
2022/04/20 03:27:10;;;;;;;;;;;;;;;0.36;71.31;94920.53;5136339;27;1055;-49
2022/04/20 03:29:36;;;;;;;;;;;;;;;0.46;70.78;94931.25;5135952;27;1253;-49
2022/04/20 03:32:12;;;;;;;;;;;;;;;0.44;69.62;94927.03;5135968;27;976;-49
2022/04/20 03:34:38;;;;;;;;;;;;;;;0.38;71.07;94923.06;5136231;27;976;-49
2022/04/20 03:37:05;;;;;;;;;;;;;;;0.60;70.53;94917.16;5136095;27;1028;-49
2022/04/20 03:39:32;;;;;;;;;;;;;;;0.69;70.70;94908.63;5135848;27;994;-49
2022/04/20 03:41:58;;;;;;;;;;;;;;;0.92;70.06;94901.72;5136011;27;2386;-49
2022/04/20 03:44:25;;;;;;;;;;;;;;;1.07;70.21;94902.44;5135675;27;1082;-49
2022/04/20 03:46:51;;;;;;;;;;;;;;;1.20;69.72;94901.56;5135875;27;968;-49
2022/04/20 03:49:17;;;;;;;;;;;;;;;1.30;70.30;94899.94;5136073;27;1043;-48
2022/04/20 03:51:45;;;;;;;;;;;;;;;1.40;69.86;94884.31;5135765;27;1063;-49
2022/04/20 03:54:11;;;;;;;;;;;;;;;1.25;69.94;94884.47;5135762;27;1139;-49
2022/04/20 03:59:22;;;;;;;;;;;;;;;1.14;71.20;94889.69;5135393;27;1106;-49
2022/04/20 04:01:49;;;;;;;;;;;;;;;1.28;70.57;94878.13;5135578;27;1993;-49
2022/04/20 04:04:15;;;;;;;;;;;;;;;1.44;70.51;94886.63;5135279;27;1063;-49
2022/04/20 04:06:41;;;;;;;;;;;;;;;1.65;70.08;94893.88;5135386;27;1055;-49
2022/04/20 04:09:07;;;;;;;;;;;;;;;1.66;70.37;94888.50;5135471;27;944;-49
2022/04/20 04:11:33;;;;;;;;;;;;;;;1.58;70.79;94900.56;5135151;27;1023;-48
2022/04/20 04:14:00;;;;;;;;;;;;;;;1.71;70.81;94891.66;5135017;27;1827;-48
2022/04/20 04:16:26;;;;;;;;;;;;;;;1.78;70.66;94902.56;5135292;27;980;-49
2022/04/20 04:18:52;;;;;;;;;;;;;;;1.82;70.29;94904.03;5135049;27;1111;-49
2022/04/20 04:21:18;;;;;;;;;;;;;;;1.91;69.99;94911.22;5134843;27;2006;-48
2022/04/20 04:23:45;;;;;;;;;;;;;;;1.88;70.24;94919.38;5135177;27;940;-49
2022/04/20 04:26:11;;;;;;;;;;;;;;;1.87;69.45;94925.59;5134783;27;1043;-49
2022/04/20 04:28:37;;;;;;;;;;;;;;;1.95;70.07;94922.41;5134696;27;1111;-49
2022/04/20 04:31:03;;;;;;;;;;;;;;;2.03;69.39;94919.19;5135070;27;948;-49
2022/04/20 04:33:29;;;;;;;;;;;;;;;2.05;69.06;94917.28;5135001;27;1176;-49
2022/04/20 04:35:55;;;;;;;;;;;;;;;1.99;68.99;94926.47;5135061;27;1043;-49
2022/04/20 04:38:21;;;;;;;;;;;;;;;1.91;69.73;94913.03;5134901;27;1039;-49
2022/04/20 04:40:47;;;;;;;;;;;;;;;1.83;70.39;94912.78;5134559;27;1910;-49
2022/04/20 04:43:13;;;;;;;;;;;;;;;1.88;70.50;94908.00;5134527;27;1020;-49
2022/04/20 04:48:42;;;;;;;;;;;;;;;2.11;71.07;94906.28;5134792;27;953;-49
2022/04/20 04:51:11;;;;;;;;;;;;;;;2.18;70.92;94904.84;5134883;27;1078;-49
2022/04/20 04:53:37;;;;;;;;;;;;;;;2.29;70.80;94906.69;5134338;27;1075;-49
2022/04/20 04:56:04;;;;;;;;;;;;;;;2.36;69.95;94920.25;5134730;27;996;-49
2022/04/20 04:58:30;;;;;;;;;;;;;;;2.40;71.63;94933.09;5134665;27;1035;-49
2022/04/20 05:00:57;;;;;;;;;;;;;;;2.37;71.43;94937.75;5134572;27;1918;-49
2022/04/20 05:03:23;;;;;;;;;;;;;;;2.39;72.24;94955.16;5134542;27;952;-49
2022/04/20 05:05:49;;;;;;;;;;;;;;;2.40;71.83;94946.28;5134322;28;1128;-49
2022/04/20 05:08:15;;;;;;;;;;;;;;;2.44;70.84;94946.88;5134228;28;1007;-49
2022/04/20 05:10:41;;;;;;;;;;;;;;;2.47;71.51;94942.22;5134387;28;1078;-49
2022/04/20 05:13:07;;;;;;;;;;;;;;;2.33;71.64;94940.63;5134569;28;1031;-49
2022/04/20 05:15:33;;;;;;;;;;;;;;;2.34;71.77;94944.94;5134614;28;1035;-48
2022/04/20 05:18:00;;;;;;;;;;;;;;;2.41;71.02;94947.09;5134278;28;1016;-49
2022/04/20 05:20:26;;;;;;;;;;;;;;;2.35;71.34;94948.41;5134266;28;1059;-49
2022/04/20 05:22:52;;;;;;;;;;;;;;;2.28;72.12;94939.31;5134054;28;1901;-48
2022/04/20 05:25:18;;;;;;;;;;;;;;;2.30;72.83;94940.03;5134421;28;1035;-48
2022/04/20 05:27:45;;;;;;;;;;;;;;;2.23;72.27;94939.63;5134455;28;1050;-49
2022/04/20 05:30:13;;;;;;;;;;;;;;;2.23;72.67;94952.00;5134035;28;1103;-49
2022/04/20 05:32:39;;;;;;;;;;;;;;;2.21;72.29;94946.00;5134430;28;1028;-49
2022/04/20 05:35:05;;;;;;;;;;;;;;;2.23;72.01;94950.19;5134160;28;1187;-49
2022/04/20 05:43:00;;;;;;;;;;;;;;;2.42;72.69;94939.09;5138345;27;2019;-49
2022/04/20 05:45:26;;;;;;;;;;;;;;;2.48;73.35;94946.53;5138359;27;968;-49
2022/04/20 05:47:52;;;;;;;;;;;;;;;2.57;73.80;94945.00;5138049;27;1026;-48
2022/04/20 05:50:18;;;;;;;;;;;;;;;2.50;74.27;94939.34;5138171;27;1043;-49
2022/04/20 05:52:44;;;;;;;;;;;;;;;2.45;73.88;94936.22;5138018;27;1024;-49
2022/04/20 05:55:10;;;;;;;;;;;;;;;2.54;73.94;94927.59;5138155;27;1067;-49
2022/04/20 05:57:37;;;;;;;;;;;;;;;2.58;73.33;94925.56;5137932;27;953;-49
2022/04/20 06:00:03;;;;;;;;;;;;;;;2.59;73.82;94929.88;5138065;27;1047;-49
2022/04/20 06:02:33;;;;;;;;;;;;;;;2.74;74.69;94917.28;5138159;27;1984;-48
2022/04/20 06:05:00;;;;;;;;;;;;;;;2.83;73.71;94905.19;5137931;27;1063;-49
2022/04/20 06:07:26;;;;;;;;;;;;;;;2.89;73.87;94915.25;5137831;27;1007;-49
2022/04/20 06:09:52;;;;;;;;;;;;;;;2.82;73.70;94914.88;5137565;27;1044;-49
2022/04/20 06:12:20;;;;;;;;;;;;;;;2.85;73.38;94909.38;5137490;27;1020;-49
2022/04/20 06:14:46;;;;;;;;;;;;;;;3.07;72.92;94902.41;5137469;27;1111;-49
2022/04/20 06:17:12;;;;;;;;;;;;;;;3.25;73.04;94905.38;5137495;27;955;-49
2022/04/20 06:19:38;;;;;;;;;;;;;;;3.23;73.68;94913.44;5137380;27;998;-49
2022/04/20 06:22:04;;;;;;;;;;;;;;;3.17;74.10;94910.44;5137440;27;1906;-49
2022/04/20 06:24:30;;;;;;;;;;;;;;;3.20;73.48;94903.09;5137394;27;1046;-48
2022/04/20 06:26:56;;;;;;;;;;;;;;;3.22;74.45;94901.19;5137576;27;1042;-49
2022/04/20 06:29:22;;;;;;;;;;;;;;;3.23;74.48;94900.22;5137100;27;1242;-49
2022/04/20 06:31:48;;;;;;;;;;;;;;;3.08;74.84;94898.81;5137102;27;1055;-49
2022/04/20 06:34:14;;;;;;;;;;;;;;;3.10;74.97;94899.53;5137322;27;1000;-48
2022/04/20 06:36:40;;;;;;;;;;;;;;;3.18;76.04;94906.84;5137251;27;1043;-48
2022/04/20 06:39:06;;;;;;;;;;;;;;;3.25;76.44;94894.81;5137336;27;1047;-49
2022/04/20 06:41:32;;;;;;;;;;;;;;;3.35;76.29;94894.91;5137007;27;1975;-49
2022/04/20 06:43:58;;;;;;;;;;;;;;;3.42;76.10;94898.75;5136982;27;1042;-49
2022/04/20 06:46:24;;;;;;;;;;;;;;;3.46;75.63;94893.09;5137149;27;1031;-49
2022/04/20 06:48:50;;;;;;;;;;;;;;;3.49;75.66;94884.06;5136726;27;1060;-49
2022/04/20 06:51:16;;;;;;;;;;;;;;;3.48;76.26;94861.25;5136958;27;1003;-49
2022/04/20 06:59:11;;;;;;;;;;;;;;;3.62;76.71;94879.44;5136906;27;1022;-48
2022/04/20 07:01:37;;;;;;;;;;;;;;;3.63;76.51;94877.66;5136482;27;1934;-48
2022/04/20 07:04:05;;;;;;;;;;;;;;;3.78;75.97;94896.72;5136733;27;1003;-49
2022/04/20 07:06:31;;;;;;;;;;;;;;;3.78;76.81;94894.91;5136684;27;1003;-48
2022/04/20 07:08:58;;;;;;;;;;;;;;;3.81;76.03;94885.88;5136422;27;2137;-49
2022/04/20 07:11:28;;;;;;;;;;;;;;;3.83;76.82;94898.03;5136377;27;1076;-49
2022/04/20 07:13:57;;;;;;;;;;;;;;;3.81;76.90;94891.16;5136587;27;1059;-49
2022/04/20 07:16:23;;;;;;;;;;;;;;;3.82;76.98;94888.41;5136533;27;1056;-49
2022/04/20 07:18:49;;;;;;;;;;;;;;;3.87;76.62;94891.53;5136452;27;944;-48
2022/04/20 07:21:16;;;;;;;;;;;;;;;3.87;76.79;94880.06;5136292;27;1998;-48
2022/04/20 07:23:42;;;;;;;;;;;;;;;3.82;77.63;94875.19;5136427;27;1039;-48
2022/04/20 07:26:08;;;;;;;;;;;;;;;3.77;78.05;94869.41;5136028;27;1075;-49
2022/04/20 07:28:34;;;;;;;;;;;;;;;3.70;78.60;94878.84;5136056;27;1091;-49
2022/04/20 07:31:02;;;;;;;;;;;;;;;3.70;78.61;94874.41;5136203;27;984;-48
2022/04/20 07:33:28;;;;;;;;;;;;;;;3.64;78.88;94866.97;5135902;27;1039;-49
2022/04/20 07:35:54;;;;;;;;;;;;;;;3.69;78.72;94848.91;5135743;27;1083;-49
2022/04/20 07:38:24;;;;;;;;;;;;;;;3.87;77.59;94850.97;5136318;27;965;-48
2022/04/20 07:40:50;;;;;;;;;;;;;;;3.99;78.71;94870.31;5135958;27;1913;-49
2022/04/20 07:43:16;;;;;;;;;;;;;;;3.96;78.58;94874.03;5135761;27;1024;-48
2022/04/20 07:45:42;;;;;;;;;;;;;;;4.00;77.79;94875.44;5135895;27;1038;-48
2022/04/20 07:48:08;;;;;;;;;;;;;;;3.96;78.01;94868.75;5135599;27;1032;-49
2022/04/20 07:50:35;;;;;;;;;;;;;;;3.95;78.20;94856.50;5135804;27;1024;-48
2022/04/20 07:53:01;;;;;;;;;;;;;;;3.88;78.35;94857.97;5135507;27;1177;-49
2022/04/20 07:55:29;;;;;;;;;;;;;;;3.80;79.13;94865.69;5135479;27;1103;-49
2022/04/20 07:57:57;;;;;;;;;;;;;;;3.79;79.05;94869.31;5135714;27;968;-48
2022/04/20 08:00:24;;;;;;;;;;;;;;;3.81;79.30;94865.56;5135185;27;995;-48
2022/04/20 08:02:50;;;;;;;;;;;;;;;3.85;79.45;94858.22;5135434;27;1909;-48
2022/04/20 08:05:19;;;;;;;;;;;;;;;3.99;78.60;94857.91;5135630;27;1058;-48
2022/04/20 08:07:45;;;;;;;;;;;;;;;4.03;78.39;94845.28;5135329;27;960;-49
2022/04/20 08:10:12;;;;;;;;;;;;;;;4.14;78.28;94839.91;5135160;27;1055;-49
2022/04/20 08:12:39;;;;;;;;;;;;;;;4.22;78.73;94833.97;5135434;27;1118;-48
2022/04/20 08:15:05;;;;;;;;;;;;;;;4.41;78.88;94831.44;5135181;27;1091;-48
2022/04/20 08:17:32;;;;;;;;;;;;;;;4.52;79.11;94837.63;5135098;27;1852;-49
2022/04/20 08:19:58;;;;;;;;;;;;;;;4.67;79.68;94831.84;5135013;27;949;-48
2022/04/20 08:22:25;;;;;;;;;;;;;;;4.80;78.73;94813.06;5134929;27;1979;-48
2022/04/20 08:24:51;;;;;;;;;;;;;;;5.00;78.07;94818.44;5134878;27;1016;-48
2022/04/20 08:27:19;;;;;;;;;;;;;;;4.97;79.05;94816.03;5135261;27;1035;-48
2022/04/20 08:29:47;;;;;;;;;;;;;;;4.97;78.95;94821.34;5134788;27;1127;-49
2022/04/20 08:32:16;;;;;;;;;;;;;;;4.98;79.17;94809.78;5134795;27;1019;-48
2022/04/20 08:34:43;;;;;;;;;;;;;;;5.09;78.44;94799.91;5135045;27;1043;-48
2022/04/20 08:37:09;;;;;;;;;;;;;;;5.37;78.06;94809.84;5134676;27;1091;-49
2022/04/20 08:39:36;;;;;;;;;;;;;;;5.51;78.84;94808.63;5134971;27;973;-49
2022/04/20 08:42:02;;;;;;;;;;;;;;;5.51;78.81;94806.78;5134899;27;1909;-49
2022/04/20 08:44:28;;;;;;;;;;;;;;;5.40;77.99;94801.63;5134794;27;992;-49
2022/04/20 08:46:59;;;;;;;;;;;;;;;5.44;78.28;94793.28;5134946;27;1026;-49
2022/04/20 08:49:25;;;;;;;;;;;;;;;5.58;78.20;94794.66;5134911;27;1046;-48
2022/04/20 08:54:36;;;;;;;;;;;;;;;5.65;78.31;94789.63;5134842;27;1036;-48
2022/04/20 08:57:18;;;;;;;;;;;;;;;5.56;77.89;94780.72;5134517;27;1966;-48
2022/04/20 08:59:44;;;;;;;;;;;;;;;5.63;77.16;94773.88;5134490;27;1039;-48
2022/04/20 09:02:12;;;;;;;;;;;;;;;5.78;76.55;94763.66;5134614;27;1902;-48
2022/04/20 09:04:38;;;;;;;;;;;;;;;5.83;77.61;94768.53;5134312;27;1047;-48
2022/04/20 09:07:11;;;;;;;;;;;;;;;5.85;77.41;94775.38;5134621;27;952;-48
2022/04/20 09:09:38;;;;;;;;;;;;;;;5.79;77.18;94769.81;5134276;28;1047;-48
2022/04/20 09:12:14;;;;;;;;;;;;;;;5.67;77.42;94771.75;5134476;27;1030;-48
2022/04/20 09:14:41;;;;;;;;;;;;;;;5.65;78.47;94760.44;5138763;27;1124;-48
2022/04/20 09:17:11;;;;;;;;;;;;;;;5.63;78.04;94757.97;5138519;27;1040;-48
2022/04/20 09:19:37;;;;;;;;;;;;;;;5.86;77.20;94760.28;5138775;27;984;-48
2022/04/20 09:22:15;;;;;;;;;;;;;;;5.98;76.94;94751.22;5138590;27;1992;-48
2022/04/20 09:25:06;;;;;;;;;;;;;;;5.87;77.09;94743.41;5138515;27;1941;-48
2022/04/20 09:27:34;;;;;;;;;;;;;;;5.82;77.84;94740.31;5132263;27;1318;-48
2022/04/20 09:30:00;;;;;;;;;;;;;;;5.74;78.14;94735.72;5138251;27;1218;-48
2022/04/20 09:32:30;;;;;;;;;;;;;;;5.62;78.45;94732.41;5138264;27;1036;-48
2022/04/20 09:34:59;;;;;;;;;;;;;;;5.57;78.26;94737.28;5138324;27;960;-48
2022/04/20 09:37:26;;;;;;;;;;;;;;;5.57;78.27;94728.50;5138464;27;953;-49
2022/04/20 09:39:52;;;;;;;;;;;;;;;5.55;79.25;94725.97;5138115;27;1103;-48
2022/04/20 09:42:18;;;;;;;;;;;;;;;5.66;78.06;94709.09;5138038;27;1984;-48
2022/04/20 09:45:12;;;;;;;;;;;;;;;5.98;77.65;94705.28;5138288;27;1020;-48
2022/04/20 09:50:27;;;;;;;;;;;;;;;6.14;77.49;94696.72;5137880;27;1012;-48
2022/04/20 09:52:59;;;;;;;;;;;;;;;6.18;77.42;94703.41;5138157;27;1178;-48
2022/04/20 09:55:30;;;;;;;;;;;;;;;6.18;77.05;94717.50;5137937;27;1020;-48
2022/04/20 09:58:13;;;;;;;;;;;;;;;6.17;77.11;94715.00;5137783;27;1071;-48
2022/04/20 10:00:40;;;;;;;;;;;;;;;6.14;77.08;94702.84;5137824;27;964;-48
2022/04/20 10:03:06;;;;;;;;;;;;;;;6.17;76.83;94697.25;5137928;27;1898;-48
2022/04/20 10:05:32;;;;;;;;;;;;;;;6.41;76.41;94687.94;5137887;27;1030;-48
2022/04/20 10:07:59;;;;;;;;;;;;;;;6.69;75.87;94683.44;5137963;27;1007;-48
2022/04/20 10:10:26;;;;;;;;;;;;;;;6.92;73.74;94694.50;5137606;27;1067;-48
2022/04/20 10:12:54;;;;;;;;;;;;;;;6.96;74.63;94684.41;5137520;27;1040;-48
2022/04/20 10:18:09;;;;;;;;;;;;;;;6.78;75.14;94695.00;5137702;27;1023;-48
2022/04/20 10:20:35;;;;;;;;;;;;;;;6.79;75.25;94686.03;5137505;27;1003;-48
2022/04/20 10:23:02;;;;;;;;;;;;;;;6.75;74.99;94684.66;5137492;27;1984;-48
2022/04/20 10:25:29;;;;;;;;;;;;;;;6.71;74.88;94685.97;5137108;27;1035;-48
2022/04/20 10:27:57;;;;;;;;;;;;;;;6.67;75.79;94681.94;5137357;27;988;-48
2022/04/20 10:30:30;;;;;;;;;;;;;;;6.69;75.21;94672.81;5137046;27;1087;-48
2022/04/20 10:33:12;;;;;;;;;;;;;;;6.73;74.89;94660.91;5137507;27;1058;-48
2022/04/20 10:35:53;;;;;;;;;;;;;;;6.76;74.62;94647.34;5137171;27;1018;-48
2022/04/20 10:38:19;;;;;;;;;;;;;;;6.75;74.06;94643.00;5137083;27;1024;-48
2022/04/20 10:41:02;;;;;;;;;;;;;;;6.72;74.81;94632.69;5136959;27;1055;-48
2022/04/20 10:43:30;;;;;;;;;;;;;;;6.75;74.82;94626.22;5136972;27;1095;-48
2022/04/20 10:46:04;;;;;;;;;;;;;;;6.82;74.34;94637.94;5137093;27;1012;-48
2022/04/20 10:48:43;;;;;;;;;;;;;;;6.95;75.43;94627.75;5136985;27;1003;-48
2022/04/20 10:51:11;;;;;;;;;;;;;;;7.00;74.48;94622.84;5136769;27;987;-48
2022/04/20 10:53:37;;;;;;;;;;;;;;;7.04;74.62;94626.84;5137135;27;971;-48
2022/04/20 10:56:03;;;;;;;;;;;;;;;6.98;74.54;94627.47;5137028;27;1010;-48
2022/04/20 10:58:29;;;;;;;;;;;;;;;7.09;74.29;94637.00;5136634;27;1091;-48
2022/04/20 11:01:07;;;;;;;;;;;;;;;7.14;74.04;94636.56;5136873;27;1905;-48
2022/04/20 11:03:51;;;;;;;;;;;;;;;7.18;74.10;94640.59;5136555;27;1934;-48
2022/04/20 11:06:17;;;;;;;;;;;;;;;7.10;74.11;94633.38;5136563;27;1094;-48
2022/04/20 11:08:43;;;;;;;;;;;;;;;7.29;74.09;94632.38;5136711;27;977;-48
2022/04/20 11:19:50;;;;;;;;;;;;;;;7.12;74.88;94636.72;5136749;27;949;-48
2022/04/20 11:22:16;;;;;;;;;;;;;;;7.18;75.56;94641.41;5135244;27;1985;-48
2022/04/20 11:24:42;;;;;;;;;;;;;;;7.17;76.98;94642.44;5136157;27;965;-48
2022/04/20 11:27:10;;;;;;;;;;;;;;;7.15;75.73;94655.03;5136081;27;1016;-48
2022/04/20 11:29:37;;;;;;;;;;;;;;;7.08;76.98;94648.66;5135986;27;1253;-48
2022/04/20 11:32:12;;;;;;;;;;;;;;;7.11;76.46;94636.88;5136324;27;1023;-48
2022/04/20 11:34:41;;;;;;;;;;;;;;;7.11;76.92;94619.09;5135735;27;1045;-48
2022/04/20 11:37:07;;;;;;;;;;;;;;;7.22;76.24;94624.16;5135177;27;1882;-48
2022/04/20 11:39:34;;;;;;;;;;;;;;;7.42;76.75;94618.69;5136078;27;1023;-48
2022/04/20 11:42:03;;;;;;;;;;;;;;;7.72;75.43;94635.19;5136006;27;1909;-49
2022/04/20 11:44:33;;;;;;;;;;;;;;;7.92;75.50;94639.31;5136073;27;1044;-48
2022/04/20 11:47:04;;;;;;;;;;;;;;;7.94;75.36;94633.81;5136000;27;1094;-51
2022/04/20 11:49:31;;;;;;;;;;;;;;;7.85;76.03;94638.25;5135584;27;964;-48
2022/04/20 11:52:00;;;;;;;;;;;;;;;7.84;75.30;94647.25;5135597;27;1044;-48
2022/04/20 11:54:30;;;;;;;;;;;;;;;7.82;75.85;94646.56;5135539;27;1082;-48
2022/04/20 11:56:56;;;;;;;;;;;;;;;7.88;76.12;94635.28;5135734;27;983;-48
2022/04/20 11:59:24;;;;;;;;;;;;;;;7.88;76.00;94637.13;5135763;27;953;-48
2022/04/20 12:01:50;;;;;;;;;;;;;;;7.95;76.85;94635.50;5135424;27;1910;-48
2022/04/20 12:04:18;;;;;;;;;;;;;;;8.01;76.50;94637.53;5135185;27;1009;-48
2022/04/20 12:06:44;;;;;;;;;;;;;;;7.97;77.42;94652.16;5135289;27;1068;-48
2022/04/20 12:09:11;;;;;;;;;;;;;;;7.91;76.99;94656.28;5135397;27;955;-48
2022/04/20 12:11:37;;;;;;;;;;;;;;;7.78;78.27;94670.00;5135205;27;1067;-48
2022/04/20 12:14:03;;;;;;;;;;;;;;;7.56;78.88;94676.63;5133926;27;1020;-48
2022/04/20 12:16:33;;;;;;;;;;;;;;;7.42;79.11;94685.19;5135398;27;1027;-48
2022/04/20 12:18:59;;;;;;;;;;;;;;;7.40;79.58;94703.13;5134970;27;1047;-48
2022/04/20 12:21:42;;;;;;;;;;;;;;;7.35;80.28;94710.72;5134960;27;1897;-48
2022/04/20 12:24:09;;;;;;;;;;;;;;;7.31;80.43;94731.44;5135007;27;1031;-48
2022/04/20 12:26:40;;;;;;;;;;;;;;;7.22;81.62;94766.91;5135081;27;972;-48
2022/04/20 12:32:32;;;;;;;;;;;;;;;7.06;82.30;94790.66;3446759;27;2299;-48
2022/04/20 12:35:02;;;;;;;;;;;;;;;7.06;81.67;94804.81;5134838;27;1975;-48
2022/04/20 12:37:31;;;;;;;;;;;;;;;7.06;80.62;94802.16;5134927;27;1051;-48
2022/04/20 12:40:17;;;;;;;;;;;;;;;7.03;80.30;94805.09;5135004;27;953;-48
2022/04/20 12:42:58;;;;;;;;;;;;;;;7.04;80.50;94810.25;5134963;27;1988;-48
2022/04/20 12:45:24;;;;;;;;;;;;;;;7.06;79.95;94806.59;5134996;27;1023;-48
2022/04/20 12:48:00;;;;;;;;;;;;;;;7.13;79.08;94810.34;5134545;27;1211;-48
2022/04/20 12:50:33;;;;;;;;;;;;;;;7.20;78.91;94824.72;5134855;27;968;-48
2022/04/20 12:52:59;;;;;;;;;;;;;;;7.19;79.91;94823.91;5134840;27;1023;-47
2022/04/20 12:55:33;;;;;;;;;;;;;;;7.19;80.77;94837.19;5134589;27;1079;-47
2022/04/20 13:02:01;;;;;;;;;;;;;;;7.07;82.47;94830.38;5134502;27;1064;-47
2022/04/20 13:03:36;;;;;;;;;;;;;;;7.16;82.09;94834.81;5134329;27;1860;-47
2022/04/20 13:06:03;;;;;;;;;;;;;;;7.13;82.09;94835.13;5134682;27;969;-47
2022/04/20 13:08:29;;;;;;;;;;;;;;;7.21;81.19;94837.88;5134752;27;1059;-48
2022/04/20 13:10:55;;;;;;;;;;;;;;;7.19;81.42;94841.66;5134718;27;1067;-47
2022/04/20 13:13:25;;;;;;;;;;;;;;;7.12;82.28;94836.09;5134348;27;1074;-48
2022/04/20 13:15:51;;;;;;;;;;;;;;;7.16;81.81;94842.81;5134597;28;964;-48
2022/04/20 13:18:17;;;;;;;;;;;;;;;7.21;81.14;94848.53;5134529;28;952;-47
2022/04/20 13:20:45;;;;;;;;;;;;;;;7.27;80.50;94857.72;5134499;28;1043;-48
2022/04/20 13:23:11;;;;;;;;;;;;;;;7.19;80.25;94863.78;5134549;27;1984;-47
2022/04/20 13:28:22;;;;;;;;;;;;;;;7.30;79.67;94852.09;5134663;27;917;-48
2022/04/20 13:30:49;;;;;;;;;;;;;;;7.30;79.83;94860.06;5134199;28;1090;-48
2022/04/20 13:33:16;;;;;;;;;;;;;;;7.23;80.07;94857.19;5134132;28;1225;-47
2022/04/20 13:35:42;;;;;;;;;;;;;;;7.17;80.83;94852.47;5134509;28;1020;-48
2022/04/20 13:38:11;;;;;;;;;;;;;;;7.26;79.78;94861.34;5134169;28;992;-48
2022/04/20 13:40:38;;;;;;;;;;;;;;;7.25;80.97;94867.69;5134077;28;956;-48
2022/04/20 13:43:08;;;;;;;;;;;;;;;7.24;79.96;94873.97;5134277;28;1918;-48
2022/04/20 13:45:34;;;;;;;;;;;;;;;7.16;79.35;94879.19;5134412;28;1048;-48
2022/04/20 13:48:02;;;;;;;;;;;;;;;7.13;79.32;94877.69;5133993;28;1023;-48
2022/04/20 13:50:28;;;;;;;;;;;;;;;7.08;80.54;94889.72;5134336;28;1027;-47
2022/04/20 13:52:54;;;;;;;;;;;;;;;7.04;80.12;94897.16;5134125;28;956;-47
2022/04/20 13:55:21;;;;;;;;;;;;;;;7.03;79.87;94904.28;5134295;28;1051;-47
2022/04/20 13:57:47;;;;;;;;;;;;;;;7.13;79.44;94911.38;5134071;27;1941;-48